sensor_id;sensor_type;location;lat;lon;timestamp;P1;durP1;ratioP1;P2;durP2;ratioP2
33190;SDS011;19554;42.652;23.364;2024-01-06T00:02:08;33.38;;;18.15;;
33190;SDS011;19554;42.652;23.364;2024-01-06T00:04:33;38.33;;;17.70;;
33190;SDS011;19554;42.652;23.364;2024-01-06T00:06:59;39.58;;;18.05;;
33190;SDS011;19554;42.652;23.364;2024-01-06T00:09:24;49.17;;;17.58;;
33190;SDS011;19554;42.652;23.364;2024-01-06T00:11:49;39.95;;;18.90;;
33190;SDS011;19554;42.652;23.364;2024-01-06T00:14:15;43.83;;;19.88;;
33190;SDS011;19554;42.652;23.364;2024-01-06T00:16:40;43.88;;;20.45;;
33190;SDS011;19554;42.652;23.364;2024-01-06T00:19:06;43.67;;;22.40;;
33190;SDS011;19554;42.652;23.364;2024-01-06T00:21:31;46.78;;;22.23;;
33190;SDS011;19554;42.652;23.364;2024-01-06T00:23:57;53.42;;;24.35;;
33190;SDS011;19554;42.652;23.364;2024-01-06T00:26:22;50.60;;;23.33;;
33190;SDS011;19554;42.652;23.364;2024-01-06T00:28:49;46.33;;;23.00;;
33190;SDS011;19554;42.652;23.364;2024-01-06T00:31:15;55.50;;;23.02;;
33190;SDS011;19554;42.652;23.364;2024-01-06T00:33:42;49.63;;;22.42;;
33190;SDS011;19554;42.652;23.364;2024-01-06T00:36:08;49.17;;;22.60;;
33190;SDS011;19554;42.652;23.364;2024-01-06T00:38:33;40.97;;;22.88;;
33190;SDS011;19554;42.652;23.364;2024-01-06T00:41:00;54.15;;;24.55;;
33190;SDS011;19554;42.652;23.364;2024-01-06T00:43:26;49.70;;;23.90;;
33190;SDS011;19554;42.652;23.364;2024-01-06T00:45:51;49.25;;;23.48;;
33190;SDS011;19554;42.652;23.364;2024-01-06T00:48:17;51.10;;;22.90;;
33190;SDS011;19554;42.652;23.364;2024-01-06T00:50:42;50.63;;;23.92;;
33190;SDS011;19554;42.652;23.364;2024-01-06T00:53:08;56.63;;;24.52;;
33190;SDS011;19554;42.652;23.364;2024-01-06T00:55:33;55.72;;;23.73;;
33190;SDS011;19554;42.652;23.364;2024-01-06T00:57:59;51.53;;;23.30;;
33190;SDS011;19554;42.652;23.364;2024-01-06T01:00:24;46.10;;;22.25;;
33190;SDS011;19554;42.652;23.364;2024-01-06T01:02:50;48.75;;;23.15;;
33190;SDS011;19554;42.652;23.364;2024-01-06T01:05:16;46.00;;;23.33;;
33190;SDS011;19554;42.652;23.364;2024-01-06T01:07:41;51.22;;;26.35;;
33190;SDS011;19554;42.652;23.364;2024-01-06T01:10:07;48.70;;;25.17;;
33190;SDS011;19554;42.652;23.364;2024-01-06T01:12:33;58.28;;;26.08;;
33190;SDS011;19554;42.652;23.364;2024-01-06T01:14:59;52.40;;;22.98;;
33190;SDS011;19554;42.652;23.364;2024-01-06T01:17:25;56.03;;;24.48;;
33190;SDS011;19554;42.652;23.364;2024-01-06T01:19:50;43.75;;;21.35;;
33190;SDS011;19554;42.652;23.364;2024-01-06T01:22:15;47.65;;;24.30;;
33190;SDS011;19554;42.652;23.364;2024-01-06T01:24:41;40.65;;;20.90;;
33190;SDS011;19554;42.652;23.364;2024-01-06T01:27:07;37.72;;;18.63;;
33190;SDS011;19554;42.652;23.364;2024-01-06T01:29:33;43.20;;;19.67;;
33190;SDS011;19554;42.652;23.364;2024-01-06T01:31:58;42.38;;;19.50;;
33190;SDS011;19554;42.652;23.364;2024-01-06T01:34:24;41.45;;;19.92;;
33190;SDS011;19554;42.652;23.364;2024-01-06T01:36:49;46.00;;;20.65;;
33190;SDS011;19554;42.652;23.364;2024-01-06T01:39:15;39.13;;;18.40;;
33190;SDS011;19554;42.652;23.364;2024-01-06T01:41:40;38.80;;;18.80;;
33190;SDS011;19554;42.652;23.364;2024-01-06T01:44:06;36.45;;;18.38;;
33190;SDS011;19554;42.652;23.364;2024-01-06T01:46:32;33.85;;;18.42;;
33190;SDS011;19554;42.652;23.364;2024-01-06T01:48:58;36.22;;;18.30;;
33190;SDS011;19554;42.652;23.364;2024-01-06T01:51:29;43.10;;;18.98;;
33190;SDS011;19554;42.652;23.364;2024-01-06T01:53:57;42.67;;;18.40;;
33190;SDS011;19554;42.652;23.364;2024-01-06T01:56:23;36.53;;;18.55;;
33190;SDS011;19554;42.652;23.364;2024-01-06T01:58:49;38.20;;;19.55;;
33190;SDS011;19554;42.652;23.364;2024-01-06T02:01:15;40.55;;;20.70;;
33190;SDS011;19554;42.652;23.364;2024-01-06T02:03:42;41.85;;;21.25;;
33190;SDS011;19554;42.652;23.364;2024-01-06T02:06:10;39.95;;;20.15;;
33190;SDS011;19554;42.652;23.364;2024-01-06T02:08:38;44.50;;;19.90;;
33190;SDS011;19554;42.652;23.364;2024-01-06T02:11:04;36.13;;;19.20;;
33190;SDS011;19554;42.652;23.364;2024-01-06T02:13:37;43.83;;;21.42;;
33190;SDS011;19554;42.652;23.364;2024-01-06T02:16:03;45.60;;;21.05;;
33190;SDS011;19554;42.652;23.364;2024-01-06T02:18:30;41.05;;;19.20;;
33190;SDS011;19554;42.652;23.364;2024-01-06T02:20:57;43.95;;;19.73;;
33190;SDS011;19554;42.652;23.364;2024-01-06T02:23:24;53.00;;;26.23;;
33190;SDS011;19554;42.652;23.364;2024-01-06T02:25:49;35.63;;;19.67;;
33190;SDS011;19554;42.652;23.364;2024-01-06T02:28:15;40.88;;;19.55;;
33190;SDS011;19554;42.652;23.364;2024-01-06T02:30:40;37.75;;;20.95;;
33190;SDS011;19554;42.652;23.364;2024-01-06T02:33:06;40.65;;;19.13;;
33190;SDS011;19554;42.652;23.364;2024-01-06T02:35:31;33.80;;;19.33;;
33190;SDS011;19554;42.652;23.364;2024-01-06T02:37:56;41.85;;;19.27;;
33190;SDS011;19554;42.652;23.364;2024-01-06T02:40:22;35.80;;;18.17;;
33190;SDS011;19554;42.652;23.364;2024-01-06T02:42:47;35.85;;;18.75;;
33190;SDS011;19554;42.652;23.364;2024-01-06T02:45:13;33.70;;;17.00;;
33190;SDS011;19554;42.652;23.364;2024-01-06T02:47:38;27.23;;;13.27;;
33190;SDS011;19554;42.652;23.364;2024-01-06T02:50:04;21.17;;;10.90;;
33190;SDS011;19554;42.652;23.364;2024-01-06T02:52:30;21.20;;;11.57;;
33190;SDS011;19554;42.652;23.364;2024-01-06T02:54:56;25.60;;;12.90;;
33190;SDS011;19554;42.652;23.364;2024-01-06T02:57:21;22.38;;;11.88;;
33190;SDS011;19554;42.652;23.364;2024-01-06T02:59:47;24.73;;;13.10;;
33190;SDS011;19554;42.652;23.364;2024-01-06T03:02:12;23.95;;;12.75;;
33190;SDS011;19554;42.652;23.364;2024-01-06T03:04:38;22.77;;;13.05;;
33190;SDS011;19554;42.652;23.364;2024-01-06T03:07:03;28.00;;;13.07;;
33190;SDS011;19554;42.652;23.364;2024-01-06T03:09:29;26.40;;;13.52;;
33190;SDS011;19554;42.652;23.364;2024-01-06T03:11:54;18.98;;;12.32;;
33190;SDS011;19554;42.652;23.364;2024-01-06T03:14:20;22.10;;;13.25;;
33190;SDS011;19554;42.652;23.364;2024-01-06T03:16:45;26.77;;;13.20;;
33190;SDS011;19554;42.652;23.364;2024-01-06T03:19:11;25.98;;;14.10;;
33190;SDS011;19554;42.652;23.364;2024-01-06T03:21:36;31.85;;;15.23;;
33190;SDS011;19554;42.652;23.364;2024-01-06T03:24:03;33.28;;;14.88;;
33190;SDS011;19554;42.652;23.364;2024-01-06T03:26:29;23.80;;;12.60;;
33190;SDS011;19554;42.652;23.364;2024-01-06T03:28:54;24.85;;;12.43;;
33190;SDS011;19554;42.652;23.364;2024-01-06T03:31:20;20.30;;;12.70;;
33190;SDS011;19554;42.652;23.364;2024-01-06T03:33:47;23.00;;;12.15;;
33190;SDS011;19554;42.652;23.364;2024-01-06T03:36:13;25.08;;;11.15;;
33190;SDS011;19554;42.652;23.364;2024-01-06T03:38:41;19.30;;;10.88;;
33190;SDS011;19554;42.652;23.364;2024-01-06T03:41:06;22.25;;;11.82;;
33190;SDS011;19554;42.652;23.364;2024-01-06T03:43:32;18.98;;;11.30;;
33190;SDS011;19554;42.652;23.364;2024-01-06T03:45:58;26.55;;;11.77;;
33190;SDS011;19554;42.652;23.364;2024-01-06T03:48:25;23.75;;;12.00;;
33190;SDS011;19554;42.652;23.364;2024-01-06T03:50:50;22.88;;;10.77;;
33190;SDS011;19554;42.652;23.364;2024-01-06T03:53:16;25.27;;;11.18;;
33190;SDS011;19554;42.652;23.364;2024-01-06T03:55:41;24.55;;;11.70;;
33190;SDS011;19554;42.652;23.364;2024-01-06T03:58:07;22.63;;;12.15;;
33190;SDS011;19554;42.652;23.364;2024-01-06T04:00:32;23.65;;;13.00;;
33190;SDS011;19554;42.652;23.364;2024-01-06T04:02:58;27.10;;;15.57;;
33190;SDS011;19554;42.652;23.364;2024-01-06T04:05:23;24.35;;;14.95;;
33190;SDS011;19554;42.652;23.364;2024-01-06T04:07:49;28.35;;;16.10;;
33190;SDS011;19554;42.652;23.364;2024-01-06T04:10:14;25.23;;;16.10;;
33190;SDS011;19554;42.652;23.364;2024-01-06T04:12:40;23.75;;;14.88;;
33190;SDS011;19554;42.652;23.364;2024-01-06T04:15:05;26.00;;;15.32;;
33190;SDS011;19554;42.652;23.364;2024-01-06T04:17:31;20.38;;;13.15;;
33190;SDS011;19554;42.652;23.364;2024-01-06T04:19:56;19.10;;;11.45;;
33190;SDS011;19554;42.652;23.364;2024-01-06T04:22:22;18.33;;;10.60;;
33190;SDS011;19554;42.652;23.364;2024-01-06T04:24:47;26.60;;;13.55;;
33190;SDS011;19554;42.652;23.364;2024-01-06T04:27:13;23.02;;;13.18;;
33190;SDS011;19554;42.652;23.364;2024-01-06T04:29:38;28.70;;;15.88;;
33190;SDS011;19554;42.652;23.364;2024-01-06T04:32:04;24.33;;;13.90;;
33190;SDS011;19554;42.652;23.364;2024-01-06T04:34:31;26.20;;;13.38;;
33190;SDS011;19554;42.652;23.364;2024-01-06T04:36:56;22.98;;;12.77;;
33190;SDS011;19554;42.652;23.364;2024-01-06T04:39:22;21.98;;;11.82;;
33190;SDS011;19554;42.652;23.364;2024-01-06T04:41:47;21.23;;;12.38;;
33190;SDS011;19554;42.652;23.364;2024-01-06T04:44:13;23.48;;;13.00;;
33190;SDS011;19554;42.652;23.364;2024-01-06T04:46:38;20.88;;;12.80;;
33190;SDS011;19554;42.652;23.364;2024-01-06T04:49:04;18.02;;;9.52;;
33190;SDS011;19554;42.652;23.364;2024-01-06T04:51:29;12.88;;;8.32;;
33190;SDS011;19554;42.652;23.364;2024-01-06T04:53:55;15.18;;;9.00;;
33190;SDS011;19554;42.652;23.364;2024-01-06T04:56:20;14.20;;;8.98;;
33190;SDS011;19554;42.652;23.364;2024-01-06T04:58:46;20.60;;;10.23;;
33190;SDS011;19554;42.652;23.364;2024-01-06T05:01:11;14.70;;;9.52;;
33190;SDS011;19554;42.652;23.364;2024-01-06T05:03:37;13.55;;;8.95;;
33190;SDS011;19554;42.652;23.364;2024-01-06T05:06:02;17.67;;;9.15;;
33190;SDS011;19554;42.652;23.364;2024-01-06T05:08:28;17.10;;;8.65;;
33190;SDS011;19554;42.652;23.364;2024-01-06T05:10:56;15.35;;;8.23;;
33190;SDS011;19554;42.652;23.364;2024-01-06T05:13:21;19.27;;;8.63;;
33190;SDS011;19554;42.652;23.364;2024-01-06T05:15:47;16.13;;;9.43;;
33190;SDS011;19554;42.652;23.364;2024-01-06T05:18:12;17.77;;;8.90;;
33190;SDS011;19554;42.652;23.364;2024-01-06T05:20:38;16.95;;;9.35;;
33190;SDS011;19554;42.652;23.364;2024-01-06T05:23:05;16.35;;;10.32;;
33190;SDS011;19554;42.652;23.364;2024-01-06T05:25:31;15.07;;;9.35;;
33190;SDS011;19554;42.652;23.364;2024-01-06T05:27:57;17.52;;;9.50;;
33190;SDS011;19554;42.652;23.364;2024-01-06T05:30:22;17.00;;;9.35;;
33190;SDS011;19554;42.652;23.364;2024-01-06T05:32:48;18.80;;;9.40;;
33190;SDS011;19554;42.652;23.364;2024-01-06T05:35:13;14.18;;;8.32;;
33190;SDS011;19554;42.652;23.364;2024-01-06T05:37:41;20.20;;;9.52;;
33190;SDS011;19554;42.652;23.364;2024-01-06T05:40:08;17.33;;;9.32;;
33190;SDS011;19554;42.652;23.364;2024-01-06T05:42:34;16.52;;;9.18;;
33190;SDS011;19554;42.652;23.364;2024-01-06T05:44:59;17.58;;;9.63;;
33190;SDS011;19554;42.652;23.364;2024-01-06T05:47:25;20.38;;;9.82;;
33190;SDS011;19554;42.652;23.364;2024-01-06T05:49:50;17.42;;;9.93;;
33190;SDS011;19554;42.652;23.364;2024-01-06T05:52:16;15.95;;;9.93;;
33190;SDS011;19554;42.652;23.364;2024-01-06T05:54:41;16.88;;;9.90;;
33190;SDS011;19554;42.652;23.364;2024-01-06T05:57:07;20.83;;;10.45;;
33190;SDS011;19554;42.652;23.364;2024-01-06T05:59:33;11.93;;;7.95;;
33190;SDS011;19554;42.652;23.364;2024-01-06T06:01:59;14.93;;;8.38;;
33190;SDS011;19554;42.652;23.364;2024-01-06T06:04:25;13.95;;;7.13;;
33190;SDS011;19554;42.652;23.364;2024-01-06T06:06:50;14.15;;;8.30;;
33190;SDS011;19554;42.652;23.364;2024-01-06T06:09:16;13.15;;;8.63;;
33190;SDS011;19554;42.652;23.364;2024-01-06T06:11:41;17.90;;;9.20;;
33190;SDS011;19554;42.652;23.364;2024-01-06T06:14:09;19.48;;;9.45;;
33190;SDS011;19554;42.652;23.364;2024-01-06T06:16:34;17.42;;;9.43;;
33190;SDS011;19554;42.652;23.364;2024-01-06T06:19:00;18.75;;;10.65;;
33190;SDS011;19554;42.652;23.364;2024-01-06T06:21:25;22.25;;;10.23;;
33190;SDS011;19554;42.652;23.364;2024-01-06T06:23:51;14.00;;;9.45;;
33190;SDS011;19554;42.652;23.364;2024-01-06T06:26:17;23.63;;;12.70;;
33190;SDS011;19554;42.652;23.364;2024-01-06T06:28:42;21.02;;;12.90;;
33190;SDS011;19554;42.652;23.364;2024-01-06T06:31:08;20.33;;;11.95;;
33190;SDS011;19554;42.652;23.364;2024-01-06T06:33:34;29.27;;;13.77;;
33190;SDS011;19554;42.652;23.364;2024-01-06T06:35:59;35.45;;;16.98;;
33190;SDS011;19554;42.652;23.364;2024-01-06T06:38:25;26.02;;;13.25;;
33190;SDS011;19554;42.652;23.364;2024-01-06T06:40:51;19.08;;;11.05;;
33190;SDS011;19554;42.652;23.364;2024-01-06T06:43:16;24.15;;;12.82;;
33190;SDS011;19554;42.652;23.364;2024-01-06T06:45:42;49.70;;;19.98;;
33190;SDS011;19554;42.652;23.364;2024-01-06T06:48:07;32.88;;;16.95;;
33190;SDS011;19554;42.652;23.364;2024-01-06T06:50:33;29.33;;;17.20;;
33190;SDS011;19554;42.652;23.364;2024-01-06T06:52:59;26.45;;;13.85;;
33190;SDS011;19554;42.652;23.364;2024-01-06T06:55:26;21.73;;;11.98;;
33190;SDS011;19554;42.652;23.364;2024-01-06T06:57:52;45.10;;;14.45;;
33190;SDS011;19554;42.652;23.364;2024-01-06T07:00:18;24.60;;;13.70;;
33190;SDS011;19554;42.652;23.364;2024-01-06T07:02:44;24.08;;;12.57;;
33190;SDS011;19554;42.652;23.364;2024-01-06T07:05:10;27.13;;;13.38;;
33190;SDS011;19554;42.652;23.364;2024-01-06T07:07:35;30.88;;;16.50;;
33190;SDS011;19554;42.652;23.364;2024-01-06T07:10:01;28.33;;;14.68;;
33190;SDS011;19554;42.652;23.364;2024-01-06T07:12:28;24.85;;;14.13;;
33190;SDS011;19554;42.652;23.364;2024-01-06T07:14:54;24.98;;;14.35;;
33190;SDS011;19554;42.652;23.364;2024-01-06T07:17:19;30.98;;;14.30;;
33190;SDS011;19554;42.652;23.364;2024-01-06T07:19:45;27.75;;;13.60;;
33190;SDS011;19554;42.652;23.364;2024-01-06T07:22:10;23.02;;;13.05;;
33190;SDS011;19554;42.652;23.364;2024-01-06T07:24:36;28.05;;;13.27;;
33190;SDS011;19554;42.652;23.364;2024-01-06T07:27:02;29.45;;;16.77;;
33190;SDS011;19554;42.652;23.364;2024-01-06T07:29:31;29.00;;;16.13;;
33190;SDS011;19554;42.652;23.364;2024-01-06T07:31:56;32.63;;;15.80;;
33190;SDS011;19554;42.652;23.364;2024-01-06T07:34:22;33.22;;;16.67;;
33190;SDS011;19554;42.652;23.364;2024-01-06T07:36:47;32.03;;;16.60;;
33190;SDS011;19554;42.652;23.364;2024-01-06T07:39:13;35.70;;;17.35;;
33190;SDS011;19554;42.652;23.364;2024-01-06T07:41:38;32.80;;;15.18;;
33190;SDS011;19554;42.652;23.364;2024-01-06T07:44:04;32.08;;;14.85;;
33190;SDS011;19554;42.652;23.364;2024-01-06T07:46:29;26.35;;;13.82;;
33190;SDS011;19554;42.652;23.364;2024-01-06T07:48:57;31.88;;;14.45;;
33190;SDS011;19554;42.652;23.364;2024-01-06T07:51:22;30.63;;;14.15;;
33190;SDS011;19554;42.652;23.364;2024-01-06T07:53:48;27.63;;;13.48;;
33190;SDS011;19554;42.652;23.364;2024-01-06T07:56:13;24.05;;;12.45;;
33190;SDS011;19554;42.652;23.364;2024-01-06T07:58:39;24.35;;;11.20;;
33190;SDS011;19554;42.652;23.364;2024-01-06T08:01:04;25.73;;;12.13;;
33190;SDS011;19554;42.652;23.364;2024-01-06T08:03:30;33.10;;;12.63;;
33190;SDS011;19554;42.652;23.364;2024-01-06T08:05:55;26.73;;;11.07;;
33190;SDS011;19554;42.652;23.364;2024-01-06T08:08:21;24.80;;;11.70;;
33190;SDS011;19554;42.652;23.364;2024-01-06T08:10:47;22.02;;;10.15;;
33190;SDS011;19554;42.652;23.364;2024-01-06T08:13:13;21.08;;;10.75;;
33190;SDS011;19554;42.652;23.364;2024-01-06T08:15:39;24.75;;;10.70;;
33190;SDS011;19554;42.652;23.364;2024-01-06T08:18:04;24.13;;;10.48;;
33190;SDS011;19554;42.652;23.364;2024-01-06T08:20:30;21.48;;;9.68;;
33190;SDS011;19554;42.652;23.364;2024-01-06T08:22:55;25.27;;;11.20;;
33190;SDS011;19554;42.652;23.364;2024-01-06T08:25:21;21.63;;;10.85;;
33190;SDS011;19554;42.652;23.364;2024-01-06T08:27:46;27.05;;;12.50;;
33190;SDS011;19554;42.652;23.364;2024-01-06T08:30:12;22.00;;;11.13;;
33190;SDS011;19554;42.652;23.364;2024-01-06T08:32:38;22.05;;;11.13;;
33190;SDS011;19554;42.652;23.364;2024-01-06T08:35:03;29.45;;;12.18;;
33190;SDS011;19554;42.652;23.364;2024-01-06T08:37:29;24.08;;;12.68;;
33190;SDS011;19554;42.652;23.364;2024-01-06T08:39:55;27.98;;;11.70;;
33190;SDS011;19554;42.652;23.364;2024-01-06T08:42:20;30.65;;;12.70;;
33190;SDS011;19554;42.652;23.364;2024-01-06T08:44:46;27.58;;;12.07;;
33190;SDS011;19554;42.652;23.364;2024-01-06T08:47:12;22.40;;;11.57;;
33190;SDS011;19554;42.652;23.364;2024-01-06T08:49:38;23.70;;;12.02;;
33190;SDS011;19554;42.652;23.364;2024-01-06T08:52:03;29.60;;;11.63;;
33190;SDS011;19554;42.652;23.364;2024-01-06T08:54:30;24.38;;;9.05;;
33190;SDS011;19554;42.652;23.364;2024-01-06T08:56:56;19.27;;;9.98;;
33190;SDS011;19554;42.652;23.364;2024-01-06T08:59:22;29.38;;;12.65;;
33190;SDS011;19554;42.652;23.364;2024-01-06T09:01:47;28.13;;;10.88;;
33190;SDS011;19554;42.652;23.364;2024-01-06T09:04:13;24.27;;;10.73;;
33190;SDS011;19554;42.652;23.364;2024-01-06T09:06:38;22.83;;;11.20;;
33190;SDS011;19554;42.652;23.364;2024-01-06T09:09:04;34.67;;;13.18;;
33190;SDS011;19554;42.652;23.364;2024-01-06T09:11:30;23.85;;;11.88;;
33190;SDS011;19554;42.652;23.364;2024-01-06T09:13:56;38.20;;;15.07;;
33190;SDS011;19554;42.652;23.364;2024-01-06T09:16:21;33.67;;;18.05;;
33190;SDS011;19554;42.652;23.364;2024-01-06T09:18:47;35.28;;;19.48;;
33190;SDS011;19554;42.652;23.364;2024-01-06T09:21:14;34.95;;;17.70;;
33190;SDS011;19554;42.652;23.364;2024-01-06T09:23:40;33.47;;;20.77;;
33190;SDS011;19554;42.652;23.364;2024-01-06T09:26:05;49.97;;;23.58;;
33190;SDS011;19554;42.652;23.364;2024-01-06T09:28:31;44.72;;;24.50;;
33190;SDS011;19554;42.652;23.364;2024-01-06T09:30:57;50.40;;;27.30;;
33190;SDS011;19554;42.652;23.364;2024-01-06T09:33:22;59.47;;;25.27;;
33190;SDS011;19554;42.652;23.364;2024-01-06T09:35:48;45.72;;;25.25;;
33190;SDS011;19554;42.652;23.364;2024-01-06T09:38:13;50.13;;;28.13;;
33190;SDS011;19554;42.652;23.364;2024-01-06T09:40:42;48.97;;;26.92;;
33190;SDS011;19554;42.652;23.364;2024-01-06T09:43:10;57.70;;;30.73;;
33190;SDS011;19554;42.652;23.364;2024-01-06T09:45:36;65.40;;;32.03;;
33190;SDS011;19554;42.652;23.364;2024-01-06T09:48:04;60.63;;;35.20;;
33190;SDS011;19554;42.652;23.364;2024-01-06T09:50:36;55.15;;;33.80;;
33190;SDS011;19554;42.652;23.364;2024-01-06T09:53:05;62.90;;;33.70;;
33190;SDS011;19554;42.652;23.364;2024-01-06T09:55:33;67.72;;;32.60;;
33190;SDS011;19554;42.652;23.364;2024-01-06T09:58:00;64.53;;;33.72;;
33190;SDS011;19554;42.652;23.364;2024-01-06T10:00:26;55.42;;;31.00;;
33190;SDS011;19554;42.652;23.364;2024-01-06T10:02:52;52.53;;;26.92;;
33190;SDS011;19554;42.652;23.364;2024-01-06T10:05:18;45.55;;;27.05;;
33190;SDS011;19554;42.652;23.364;2024-01-06T10:07:44;49.47;;;26.58;;
33190;SDS011;19554;42.652;23.364;2024-01-06T10:10:10;59.42;;;33.70;;
33190;SDS011;19554;42.652;23.364;2024-01-06T10:12:39;53.33;;;27.27;;
33190;SDS011;19554;42.652;23.364;2024-01-06T10:15:06;54.30;;;27.77;;
33190;SDS011;19554;42.652;23.364;2024-01-06T10:17:41;53.28;;;27.00;;
33190;SDS011;19554;42.652;23.364;2024-01-06T10:20:08;57.50;;;24.70;;
33190;SDS011;19554;42.652;23.364;2024-01-06T10:22:35;45.90;;;23.85;;
33190;SDS011;19554;42.652;23.364;2024-01-06T10:25:05;48.80;;;23.13;;
33190;SDS011;19554;42.652;23.364;2024-01-06T10:27:38;42.38;;;21.63;;
33190;SDS011;19554;42.652;23.364;2024-01-06T10:30:08;54.17;;;24.05;;
33190;SDS011;19554;42.652;23.364;2024-01-06T10:32:35;36.70;;;21.23;;
33190;SDS011;19554;42.652;23.364;2024-01-06T10:35:04;45.85;;;21.75;;
33190;SDS011;19554;42.652;23.364;2024-01-06T10:37:31;39.67;;;20.25;;
33190;SDS011;19554;42.652;23.364;2024-01-06T10:40:06;47.42;;;23.38;;
33190;SDS011;19554;42.652;23.364;2024-01-06T10:42:33;39.22;;;20.33;;
33190;SDS011;19554;42.652;23.364;2024-01-06T10:44:59;43.75;;;23.17;;
33190;SDS011;19554;42.652;23.364;2024-01-06T10:47:25;56.88;;;26.08;;
33190;SDS011;19554;42.652;23.364;2024-01-06T10:49:56;56.97;;;22.20;;
33190;SDS011;19554;42.652;23.364;2024-01-06T10:52:25;49.58;;;24.70;;
33190;SDS011;19554;42.652;23.364;2024-01-06T10:57:39;50.40;;;25.00;;
33190;SDS011;19554;42.652;23.364;2024-01-06T11:00:08;63.15;;;27.58;;
33190;SDS011;19554;42.652;23.364;2024-01-06T11:02:35;57.58;;;24.67;;
33190;SDS011;19554;42.652;23.364;2024-01-06T11:05:00;47.63;;;23.20;;
33190;SDS011;19554;42.652;23.364;2024-01-06T11:07:26;36.97;;;20.92;;
33190;SDS011;19554;42.652;23.364;2024-01-06T11:12:30;33.58;;;19.75;;
33190;SDS011;19554;42.652;23.364;2024-01-06T11:14:56;49.03;;;19.80;;
33190;SDS011;19554;42.652;23.364;2024-01-06T11:20:11;43.45;;;18.88;;
33190;SDS011;19554;42.652;23.364;2024-01-06T11:22:37;38.97;;;20.08;;
33190;SDS011;19554;42.652;23.364;2024-01-06T11:25:08;34.17;;;17.80;;
33190;SDS011;19554;42.652;23.364;2024-01-06T11:27:38;33.05;;;14.55;;
33190;SDS011;19554;42.652;23.364;2024-01-06T11:30:24;31.23;;;15.15;;
33190;SDS011;19554;42.652;23.364;2024-01-06T11:32:50;31.85;;;14.63;;
33190;SDS011;19554;42.652;23.364;2024-01-06T11:35:18;28.98;;;13.80;;
33190;SDS011;19554;42.652;23.364;2024-01-06T11:42:43;26.88;;;10.38;;
33190;SDS011;19554;42.652;23.364;2024-01-06T11:45:10;22.35;;;10.30;;
33190;SDS011;19554;42.652;23.364;2024-01-06T11:47:38;30.85;;;12.10;;
33190;SDS011;19554;42.652;23.364;2024-01-06T11:50:04;26.85;;;10.43;;
33190;SDS011;19554;42.652;23.364;2024-01-06T11:52:31;20.48;;;10.43;;
33190;SDS011;19554;42.652;23.364;2024-01-06T11:54:57;23.58;;;12.57;;
33190;SDS011;19554;42.652;23.364;2024-01-06T11:57:25;26.42;;;11.93;;
33190;SDS011;19554;42.652;23.364;2024-01-06T11:59:51;23.30;;;11.52;;
33190;SDS011;19554;42.652;23.364;2024-01-06T12:02:17;21.58;;;11.93;;
33190;SDS011;19554;42.652;23.364;2024-01-06T12:04:53;22.55;;;11.35;;
33190;SDS011;19554;42.652;23.364;2024-01-06T12:07:19;31.27;;;11.82;;
33190;SDS011;19554;42.652;23.364;2024-01-06T12:09:47;23.17;;;11.63;;
33190;SDS011;19554;42.652;23.364;2024-01-06T12:12:15;26.10;;;11.70;;
33190;SDS011;19554;42.652;23.364;2024-01-06T12:14:41;23.40;;;11.57;;
33190;SDS011;19554;42.652;23.364;2024-01-06T12:17:10;22.70;;;11.40;;
33190;SDS011;19554;42.652;23.364;2024-01-06T12:19:38;34.90;;;13.60;;
33190;SDS011;19554;42.652;23.364;2024-01-06T12:22:06;27.23;;;13.43;;
33190;SDS011;19554;42.652;23.364;2024-01-06T12:24:32;31.55;;;15.48;;
33190;SDS011;19554;42.652;23.364;2024-01-06T12:26:58;28.42;;;15.95;;
33190;SDS011;19554;42.652;23.364;2024-01-06T12:29:27;29.23;;;15.38;;
33190;SDS011;19554;42.652;23.364;2024-01-06T12:31:58;28.85;;;15.40;;
33190;SDS011;19554;42.652;23.364;2024-01-06T12:34:24;31.90;;;15.48;;
33190;SDS011;19554;42.652;23.364;2024-01-06T12:36:54;31.73;;;14.52;;
33190;SDS011;19554;42.652;23.364;2024-01-06T12:39:20;28.38;;;15.05;;
33190;SDS011;19554;42.652;23.364;2024-01-06T12:41:46;29.15;;;14.93;;
33190;SDS011;19554;42.652;23.364;2024-01-06T12:44:11;26.33;;;14.95;;
33190;SDS011;19554;42.652;23.364;2024-01-06T12:46:37;28.35;;;14.93;;
33190;SDS011;19554;42.652;23.364;2024-01-06T12:49:03;27.20;;;14.00;;
33190;SDS011;19554;42.652;23.364;2024-01-06T12:51:28;26.20;;;13.45;;
33190;SDS011;19554;42.652;23.364;2024-01-06T12:53:54;25.63;;;13.00;;
33190;SDS011;19554;42.652;23.364;2024-01-06T12:56:20;25.88;;;12.35;;
33190;SDS011;19554;42.652;23.364;2024-01-06T12:58:45;24.02;;;13.20;;
33190;SDS011;19554;42.652;23.364;2024-01-06T13:01:11;31.35;;;13.18;;
33190;SDS011;19554;42.652;23.364;2024-01-06T13:03:36;30.27;;;13.82;;
33190;SDS011;19554;42.652;23.364;2024-01-06T13:06:02;29.77;;;12.88;;
33190;SDS011;19554;42.652;23.364;2024-01-06T13:08:28;19.92;;;11.88;;
33190;SDS011;19554;42.652;23.364;2024-01-06T13:10:54;21.25;;;12.07;;
33190;SDS011;19554;42.652;23.364;2024-01-06T13:13:21;25.45;;;12.23;;
33190;SDS011;19554;42.652;23.364;2024-01-06T13:15:46;26.08;;;11.77;;
33190;SDS011;19554;42.652;23.364;2024-01-06T13:18:12;20.38;;;10.52;;
33190;SDS011;19554;42.652;23.364;2024-01-06T13:20:38;23.20;;;10.32;;
33190;SDS011;19554;42.652;23.364;2024-01-06T13:23:06;19.25;;;11.15;;
33190;SDS011;19554;42.652;23.364;2024-01-06T13:25:32;23.63;;;9.75;;
33190;SDS011;19554;42.652;23.364;2024-01-06T13:27:58;24.15;;;9.10;;
33190;SDS011;19554;42.652;23.364;2024-01-06T13:30:24;24.58;;;9.77;;
33190;SDS011;19554;42.652;23.364;2024-01-06T13:32:50;17.65;;;8.48;;
33190;SDS011;19554;42.652;23.364;2024-01-06T13:35:19;13.95;;;7.93;;
33190;SDS011;19554;42.652;23.364;2024-01-06T13:37:45;16.40;;;8.25;;
33190;SDS011;19554;42.652;23.364;2024-01-06T13:40:13;16.05;;;7.70;;
33190;SDS011;19554;42.652;23.364;2024-01-06T13:42:39;14.43;;;7.07;;
33190;SDS011;19554;42.652;23.364;2024-01-06T13:45:05;15.45;;;8.20;;
33190;SDS011;19554;42.652;23.364;2024-01-06T13:47:31;15.85;;;7.95;;
33190;SDS011;19554;42.652;23.364;2024-01-06T13:49:57;14.60;;;7.88;;
33190;SDS011;19554;42.652;23.364;2024-01-06T13:52:23;18.70;;;7.85;;
33190;SDS011;19554;42.652;23.364;2024-01-06T13:54:49;15.73;;;8.50;;
33190;SDS011;19554;42.652;23.364;2024-01-06T13:57:14;12.15;;;6.60;;
33190;SDS011;19554;42.652;23.364;2024-01-06T13:59:39;12.40;;;6.10;;
33190;SDS011;19554;42.652;23.364;2024-01-06T14:02:08;16.17;;;7.05;;
33190;SDS011;19554;42.652;23.364;2024-01-06T14:04:34;12.57;;;6.38;;
33190;SDS011;19554;42.652;23.364;2024-01-06T14:07:01;13.32;;;6.80;;
33190;SDS011;19554;42.652;23.364;2024-01-06T14:09:30;15.20;;;6.65;;
33190;SDS011;19554;42.652;23.364;2024-01-06T14:11:55;13.18;;;6.68;;
33190;SDS011;19554;42.652;23.364;2024-01-06T14:14:20;19.30;;;7.20;;
33190;SDS011;19554;42.652;23.364;2024-01-06T14:16:46;16.17;;;7.25;;
33190;SDS011;19554;42.652;23.364;2024-01-06T14:19:12;15.85;;;7.75;;